^^
Saratoga-Weather Station Historical Data
Daily Summary for February 2, 2021 Units:  English    Metric   Both
Daily Weekly Monthly Yearly Custom
  High: Low: Average:
Temperature: 77.2 °F 53.1 °F 64.2 °F
Dew Point: 57.9 °F 50.7 °F 54.3 °F
Humidity: 92% 47% 73%
Wind Speed: 10.1mph 0mph 1.7mph
Wind Gust: 14mph - -
Wind- - SE
Pressure: 30.3 in 30.1 in -
Precipitation: 0 in    
Historical Graphs
 
 
Tabular Data for February 2, 2021
Time Temperature Dew Point Pressure Wind Wind Speed Wind Gust Humidity Rainfall Rate (Hourly) solar
00:04 57.7 °F 52.7 °F 30.3 in Calm   1 mph 83% 0 in 0 W/m2
00:09 57.6 °F 52.5 °F 30.3 in NW 0.9 mph 3 mph 83% 0 in 0 W/m2
00:14 57.4 °F 52.5 °F 30.3 in West 0.9 mph 2 mph 84% 0 in 0 W/m2
00:19 57.2 °F 52.3 °F 30.3 in Calm   3 mph 84% 0 in 0 W/m2
00:24 56.8 °F 52 °F 30.3 in Calm   2 mph 84% 0 in 0 W/m2
00:29 56.7 °F 52.2 °F 30.3 in West 0.9 mph 2 mph 85% 0 in 0 W/m2
00:34 56.5 °F 52 °F 30.3 in Calm   1 mph 85% 0 in 0 W/m2
00:39 56.1 °F 52 °F 30.3 in Calm   2 mph 86% 0 in 0 W/m2
00:44 56.1 °F 52 °F 30.3 in NW 2 mph 2 mph 86% 0 in 0 W/m2
00:49 55.9 °F 51.8 °F 30.3 in NW 0.9 mph 2 mph 86% 0 in 0 W/m2
00:55 55.8 °F 51.6 °F 30.3 in Calm   2 mph 86% 0 in 0 W/m2
01:00 55.8 °F 52 °F 30.3 in West 0.9 mph 2 mph 87% 0 in 0 W/m2
01:20 55.9 °F 52.2 °F 30.3 in NW 2 mph 2 mph 87% 0 in 0 W/m2
01:25 55.9 °F 52.2 °F 30.3 in WSW 2 mph 3 mph 87% 0 in 0 W/m2
01:30 55.9 °F 52.2 °F 30.3 in Calm   2 mph 87% 0 in 0 W/m2
01:35 55.9 °F 52.2 °F 30.3 in West 0.9 mph 2 mph 87% 0 in 0 W/m2
01:40 55.9 °F 51.8 °F 30.3 in Calm   1 mph 86% 0 in 0 W/m2
01:45 55.9 °F 52.2 °F 30.3 in SW 0.9 mph 2 mph 87% 0 in 0 W/m2
01:50 55.9 °F 52.2 °F 30.3 in Calm   2 mph 87% 0 in 0 W/m2
01:55 55.8 °F 52 °F 30.3 in WNW 0.9 mph 3 mph 87% 0 in 0 W/m2
02:00 55.8 °F 52 °F 30.3 in WNW 0.9 mph 4 mph 87% 0 in 0 W/m2
02:05 55.8 °F 52 °F 30.3 in WNW 2 mph 2 mph 87% 0 in 0 W/m2
02:10 55.6 °F 51.8 °F 30.3 in West 2.9 mph 3 mph 87% 0 in 0 W/m2
02:15 55.6 °F 51.8 °F 30.3 in WNW 0.9 mph 2 mph 87% 0 in 0 W/m2
02:32 55.2 °F 51.8 °F 30.3 in West 2 mph 2 mph 88% 0 in 0 W/m2
02:37 55.2 °F 51.8 °F 30.3 in Calm   2 mph 88% 0 in 0 W/m2
02:42 55 °F 51.6 °F 30.3 in Calm   1 mph 88% 0 in 0 W/m2
02:47 54.9 °F 51.4 °F 30.3 in Calm   2 mph 88% 0 in 0 W/m2
02:52 54.9 °F 51.6 °F 30.3 in Calm   1 mph 89% 0 in 0 W/m2
03:12 54.7 °F 51.8 °F 30.3 in Calm   2 mph 90% 0 in 0 W/m2
03:17 54.7 °F 51.8 °F 30.3 in North 2.9 mph 3 mph 90% 0 in 0 W/m2
03:22 54.9 °F 52 °F 30.3 in WNW 0.9 mph 2 mph 90% 0 in 0 W/m2
03:27 54.9 °F 52 °F 30.3 in WNW 0.9 mph 2 mph 90% 0 in 0 W/m2
03:32 54.7 °F 51.8 °F 30.3 in Calm   1 mph 90% 0 in 0 W/m2
03:37 54.7 °F 51.8 °F 30.3 in WNW 0.9 mph 2 mph 90% 0 in 0 W/m2
03:42 54.5 °F 51.6 °F 30.2 in NW 0.9 mph 3 mph 90% 0 in 0 W/m2
03:47 54.7 °F 51.8 °F 30.2 in Calm   1 mph 90% 0 in 0 W/m2
03:52 54.5 °F 51.6 °F 30.2 in Calm   3 mph 90% 0 in 0 W/m2
03:57 54.3 °F 51.4 °F 30.2 in NW 0.9 mph 2 mph 90% 0 in 0 W/m2
04:13 54.1 °F 51.6 °F 30.2 in SE 0.9 mph 1 mph 91% 0 in 0 W/m2
04:18 54.1 °F 51.6 °F 30.2 in Calm   2 mph 91% 0 in 0 W/m2
04:23 54.1 °F 51.6 °F 30.2 in SW 2 mph 3 mph 91% 0 in 0 W/m2
04:28 54.1 °F 51.6 °F 30.2 in Calm   1 mph 91% 0 in 0 W/m2
04:33 54 °F 51.4 °F 30.2 in NE 0.9 mph 2 mph 91% 0 in 0 W/m2
04:38 54 °F 51.6 °F 30.2 in North 0.9 mph 2 mph 92% 0 in 0 W/m2
04:43 54.1 °F 51.8 °F 30.2 in NE 0.9 mph 3 mph 92% 0 in 0 W/m2
04:48 54 °F 51.4 °F 30.2 in NNE 0.9 mph 2 mph 91% 0 in 0 W/m2
04:53 54.1 °F 51.6 °F 30.2 in Calm   2 mph 91% 0 in 0 W/m2
04:58 54 °F 51.4 °F 30.2 in Calm     91% 0 in 0 W/m2
05:03 54 °F 51.4 °F 30.2 in North 0.9 mph 3 mph 91% 0 in 0 W/m2
05:08 54 °F 51.4 °F 30.2 in NE 0.9 mph 1 mph 91% 0 in 0 W/m2
05:13 53.8 °F 51.3 °F 30.2 in NE 0.9 mph 3 mph 91% 0 in 0 W/m2
05:18 53.8 °F 51.4 °F 30.2 in Calm   3 mph 92% 0 in 0 W/m2
05:23 53.8 °F 51.4 °F 30.2 in Calm   1 mph 92% 0 in 0 W/m2
05:28 53.8 °F 51.4 °F 30.2 in Calm   1 mph 92% 0 in 0 W/m2
05:33 53.8 °F 51.4 °F 30.2 in Calm   2 mph 92% 0 in 0 W/m2
05:38 53.8 °F 51.4 °F 30.2 in Calm   1 mph 92% 0 in 0 W/m2
05:44 53.8 °F 51.4 °F 30.2 in Calm   2 mph 92% 0 in 0 W/m2
05:49 53.6 °F 51.3 °F 30.2 in NNE 2 mph 2 mph 92% 0 in 0 W/m2
05:54 53.4 °F 51.1 °F 30.2 in Calm   2 mph 92% 0 in 0 W/m2
05:59 53.4 °F 51.1 °F 30.2 in Calm   1 mph 92% 0 in 0 W/m2
06:04 53.4 °F 51.1 °F 30.2 in Calm     92% 0 in 0 W/m2
06:09 53.2 °F 50.9 °F 30.2 in Calm   1 mph 92% 0 in 0 W/m2
06:29 53.2 °F 50.9 °F 30.2 in Calm   2 mph 92% 0 in 0 W/m2
06:34 53.2 °F 50.9 °F 30.2 in NNE 4 mph 4 mph 92% 0 in 0 W/m2
06:39 53.2 °F 50.9 °F 30.2 in NNW 0.9 mph 2 mph 92% 0 in 0 W/m2
06:44 53.2 °F 50.9 °F 30.2 in Calm   2 mph 92% 0 in 0 W/m2
06:49 53.2 °F 50.9 °F 30.2 in NE 2.9 mph 3 mph 92% 0 in 0 W/m2
06:54 53.1 °F 50.7 °F 30.2 in Calm   2 mph 92% 0 in 0 W/m2
06:59 53.1 °F 50.7 °F 30.2 in Calm   2 mph 92% 0 in 5 W/m2
07:04 53.1 °F 50.7 °F 30.2 in ENE 0.9 mph 1 mph 92% 0 in 9 W/m2
07:09 53.1 °F 50.7 °F 30.2 in Calm   2 mph 92% 0 in 11 W/m2
07:14 53.1 °F 50.7 °F 30.2 in Calm   1 mph 92% 0 in 14 W/m2
07:19 53.1 °F 50.7 °F 30.2 in Calm   2 mph 92% 0 in 16 W/m2
07:24 53.1 °F 50.7 °F 30.2 in Calm   1 mph 92% 0 in 18 W/m2
07:29 53.1 °F 50.7 °F 30.2 in Calm   1 mph 92% 0 in 21 W/m2
07:32 53.1 °F 50.7 °F 30.2 in Calm     92% 0 in 23 W/m2
07:38 53.2 °F 50.9 °F 30.2 in Calm   1 mph 92% 0 in 25 W/m2
07:43 53.2 °F 50.9 °F 30.2 in SSW 0.9 mph 1 mph 92% 0 in 26 W/m2
07:48 53.2 °F 50.9 °F 30.2 in WNW 0.9 mph 2 mph 92% 0 in 30 W/m2
07:53 53.2 °F 50.9 °F 30.2 in Calm   2 mph 92% 0 in 32 W/m2
07:58 53.4 °F 51.1 °F 30.2 in WNW 2 mph 3 mph 92% 0 in 33 W/m2
08:03 53.6 °F 51.3 °F 30.2 in NNE 0.9 mph 3 mph 92% 0 in 35 W/m2
08:08 53.8 °F 51.4 °F 30.2 in Calm   1 mph 92% 0 in 37 W/m2
08:13 53.8 °F 51.4 °F 30.2 in NNW 0.9 mph 3 mph 92% 0 in 42 W/m2
08:18 54 °F 51.6 °F 30.2 in Calm     92% 0 in 76 W/m2
08:23 54.1 °F 51.8 °F 30.2 in NW 2 mph 4 mph 92% 0 in 120 W/m2
08:28 54.3 °F 51.8 °F 30.2 in Calm   1 mph 91% 0 in 144 W/m2
08:33 54.7 °F 52.2 °F 30.2 in NE 0.9 mph 4 mph 91% 0 in 162 W/m2
08:38 55 °F 52.5 °F 30.2 in North 2 mph 2 mph 91% 0 in 176 W/m2
08:43 55.2 °F 52.3 °F 30.2 in NE 2 mph 4 mph 90% 0 in 193 W/m2
08:48 55.6 °F 52.7 °F 30.2 in Calm   3 mph 90% 0 in 213 W/m2
08:53 55.9 °F 52.7 °F 30.2 in NW 0.9 mph 3 mph 89% 0 in 223 W/m2
08:58 56.1 °F 52.9 °F 30.2 in Calm   4 mph 89% 0 in 237 W/m2
09:03 56.5 °F 52.9 °F 30.2 in SE 2 mph 4 mph 88% 0 in 253 W/m2
09:08 56.8 °F 53.1 °F 30.2 in NE 2 mph 2 mph 87% 0 in 81 W/m2
09:13 57 °F 53.2 °F 30.2 in Calm   3 mph 87% 0 in 54 W/m2
09:18 57.2 °F 53.1 °F 30.2 in ENE 2 mph 6 mph 86% 0 in 295 W/m2
09:23 57.6 °F 53.4 °F 30.2 in ENE 2 mph 4 mph 86% 0 in 311 W/m2
09:28 57.7 °F 53.6 °F 30.2 in ENE 2 mph 5 mph 86% 0 in 332 W/m2
09:33 58.3 °F 53.8 °F 30.2 in Calm   4 mph 85% 0 in 346 W/m2
09:38 58.8 °F 54 °F 30.2 in NNE 0.9 mph 3 mph 84% 0 in 359 W/m2
09:43 59.4 °F 54.5 °F 30.2 in East 0.9 mph 5 mph 84% 0 in 374 W/m2
09:48 59.7 °F 54.5 °F 30.2 in East 4.9 mph 8 mph 83% 0 in 388 W/m2
09:53 60.1 °F 54.5 °F 30.2 in East 2.9 mph 3 mph 82% 0 in 403 W/m2
09:58 60.4 °F 54.3 °F 30.2 in ENE 2 mph 4 mph 80% 0 in 417 W/m2
10:03 61 °F 54.7 °F 30.2 in NE 0.9 mph 5 mph 80% 0 in 429 W/m2
10:08 61.2 °F 54.7 °F 30.2 in SE 4 mph 9 mph 79% 0 in 443 W/m2
10:13 61.5 °F 54.9 °F 30.2 in SE 4.9 mph 7 mph 79% 0 in 454 W/m2
10:18 61.9 °F 54.9 °F 30.2 in ENE 2 mph 8 mph 78% 0 in 468 W/m2
10:23 61.9 °F 54.9 °F 30.2 in ENE 2 mph 3 mph 78% 0 in 478 W/m2
10:28 62.2 °F 55.2 °F 30.2 in East 4 mph 4 mph 78% 0 in 490 W/m2
10:33 62.8 °F 55.4 °F 30.2 in NE 0.9 mph 3 mph 77% 0 in 504 W/m2
10:38 63 °F 55.6 °F 30.2 in WNW 2.9 mph 4 mph 77% 0 in 517 W/m2
10:43 63.1 °F 55.4 °F 30.2 in East 2.9 mph 4 mph 76% 0 in 529 W/m2
10:48 63.7 °F 55.9 °F 30.2 in NE 0.9 mph 9 mph 76% 0 in 540 W/m2
10:53 64 °F 55.9 °F 30.2 in East 0.9 mph 3 mph 75% 0 in 554 W/m2
10:58 64.6 °F 56.5 °F 30.2 in ESE 2 mph 9 mph 75% 0 in 566 W/m2
11:03 64.9 °F 56.5 °F 30.2 in East 0.9 mph 4 mph 74% 0 in 573 W/m2
11:08 65.5 °F 56.3 °F 30.2 in ENE 2 mph 6 mph 72% 0 in 584 W/m2
11:13 65.7 °F 56.3 °F 30.2 in ENE 2 mph 5 mph 72% 0 in 594 W/m2
11:18 66 °F 56.7 °F 30.2 in ENE 4 mph 8 mph 72% 0 in 605 W/m2
11:23 66.6 °F 57.6 °F 30.2 in ENE 2 mph 5 mph 73% 0 in 615 W/m2
11:28 66.7 °F 57 °F 30.2 in East 2 mph 8 mph 71% 0 in 624 W/m2
11:33 66.9 °F 56.8 °F 30.2 in SE 2 mph 5 mph 70% 0 in 633 W/m2
11:38 67.3 °F 57.2 °F 30.2 in East 4 mph 7 mph 70% 0 in 642 W/m2
11:43 67.6 °F 57 °F 30.2 in East 2.9 mph 7 mph 69% 0 in 645 W/m2
11:48 67.8 °F 57.7 °F 30.2 in NE 2 mph 4 mph 70% 0 in 650 W/m2
11:53 68.5 °F 57.9 °F 30.2 in North 0.9 mph 5 mph 69% 0 in 664 W/m2
11:58 68.9 °F 57.9 °F 30.2 in ENE 0.9 mph 10 mph 68% 0 in 670 W/m2
12:03 69.1 °F 57.2 °F 30.2 in ENE 4 mph 7 mph 66% 0 in 680 W/m2
12:08 69.8 °F 57 °F 30.2 in NNE 2.9 mph 14 mph 64% 0 in 679 W/m2
12:13 70.3 °F 57.2 °F 30.2 in NE 2.9 mph 8 mph 63% 0 in 694 W/m2
12:18 71.1 °F 56.5 °F 30.2 in SE 2 mph 14 mph 60% 0 in 701 W/m2
12:23 71.8 °F 56.7 °F 30.2 in ESE 2 mph 7 mph 59% 0 in 710 W/m2
12:28 72.1 °F 56.1 °F 30.2 in ENE 2.9 mph 8 mph 57% 0 in 717 W/m2
12:33 72.3 °F 56.3 °F 30.2 in East 10.1 mph 12 mph 57% 0 in 717 W/m2
12:38 72.3 °F 55.8 °F 30.2 in NE 2 mph 7 mph 56% 0 in 721 W/m2
12:43 72.3 °F 56.7 °F 30.2 in ENE 4 mph 7 mph 58% 0 in 724 W/m2
12:48 72.3 °F 56.3 °F 30.2 in East 2.9 mph 8 mph 57% 0 in 728 W/m2
12:53 72.7 °F 56.1 °F 30.2 in SE 2.9 mph 7 mph 56% 0 in 731 W/m2
12:58 73 °F 56.5 °F 30.2 in East 0.9 mph 7 mph 56% 0 in 737 W/m2
13:03 73.4 °F 56.7 °F 30.2 in East 2.9 mph 7 mph 56% 0 in 737 W/m2
13:08 73.2 °F 55.6 °F 30.2 in SE 2.9 mph 10 mph 54% 0 in 744 W/m2
13:13 73 °F 55.9 °F 30.2 in ESE 8.1 mph 8 mph 55% 0 in 737 W/m2
13:18 73.4 °F 55.8 °F 30.2 in East 4 mph 6 mph 54% 0 in 744 W/m2
13:23 73.6 °F 54.9 °F 30.2 in ENE 2 mph 10 mph 52% 0 in 749 W/m2
13:28 73.8 °F 55.6 °F 30.2 in SSE 4 mph 5 mph 53% 0 in 745 W/m2
13:33 73.9 °F 55.2 °F 30.2 in SE 2.9 mph 8 mph 52% 0 in 754 W/m2
13:39 74.1 °F 56.5 °F 30.2 in SE 6.9 mph 7 mph 54% 0 in 754 W/m2
13:44 74.5 °F 55.8 °F 30.2 in ESE 2.9 mph 8 mph 52% 0 in 752 W/m2
13:49 74.8 °F 56.1 °F 30.2 in ENE 4 mph 8 mph 52% 0 in 751 W/m2
13:54 74.8 °F 56.1 °F 30.2 in SSW 4 mph 7 mph 52% 0 in 751 W/m2
13:59 74.7 °F 55.9 °F 30.2 in East 2 mph 10 mph 52% 0 in 754 W/m2
14:04 74.7 °F 54.9 °F 30.2 in ENE 4 mph 12 mph 50% 0 in 751 W/m2
14:09 74.5 °F 55.2 °F 30.2 in SW 0.9 mph 4 mph 51% 0 in 754 W/m2
14:14 74.5 °F 55.8 °F 30.2 in East 2 mph 12 mph 52% 0 in 751 W/m2
14:19 74.5 °F 55.8 °F 30.2 in NE 2.9 mph 9 mph 52% 0 in 751 W/m2
14:24 74.7 °F 56.8 °F 30.2 in ESE 4 mph 4 mph 54% 0 in 747 W/m2
14:29 75 °F 56.1 °F 30.2 in SE 4 mph 7 mph 52% 0 in 744 W/m2
14:34 75.4 °F 57 °F 30.2 in NE 2.9 mph 8 mph 53% 0 in 738 W/m2
14:39 75.4 °F 56.5 °F 30.2 in NNW 2 mph 7 mph 52% 0 in 737 W/m2
14:44 75.6 °F 57.2 °F 30.2 in ENE 2 mph 3 mph 53% 0 in 733 W/m2
14:49 75.7 °F 55.8 °F 30.2 in SSE 2 mph 9 mph 50% 0 in 737 W/m2
14:54 75.7 °F 56.3 °F 30.2 in NNE 0.9 mph 5 mph 51% 0 in 714 W/m2
14:59 75.9 °F 57 °F 30.2 in SE 4 mph 9 mph 52% 0 in 715 W/m2
15:04 75.7 °F 56.8 °F 30.2 in ENE 4 mph 10 mph 52% 0 in 719 W/m2
15:09 75.7 °F 56.3 °F 30.2 in East 4 mph 6 mph 51% 0 in 710 W/m2
15:14 75.6 °F 56.7 °F 30.2 in East 0.9 mph 7 mph 52% 0 in 694 W/m2
15:19 75.6 °F 56.7 °F 30.2 in SE 2 mph 7 mph 52% 0 in 693 W/m2
15:24 75.6 °F 56.1 °F 30.2 in North 2.9 mph 12 mph 51% 0 in 691 W/m2
15:29 75.7 °F 57.4 °F 30.2 in NE 4 mph 7 mph 53% 0 in 680 W/m2
15:34 75.7 °F 56.8 °F 30.2 in ENE 2.9 mph 12 mph 52% 0 in 668 W/m2
15:39 75.7 °F 57.4 °F 30.2 in NE 6 mph 7 mph 53% 0 in 552 W/m2
15:44 75.6 °F 56.7 °F 30.2 in ENE 4.9 mph 8 mph 52% 0 in 652 W/m2
15:49 75.6 °F 57.2 °F 30.2 in East 6.9 mph 9 mph 53% 0 in 640 W/m2
15:54 75.7 °F 57.4 °F 30.2 in East 4.9 mph 8 mph 53% 0 in 635 W/m2
15:59 75.6 °F 56.7 °F 30.2 in NE 2.9 mph 8 mph 52% 0 in 615 W/m2
16:04 75.6 °F 56.7 °F 30.2 in ENE 4 mph 8 mph 52% 0 in 619 W/m2
16:09 75.7 °F 56.8 °F 30.2 in ESE 4 mph 8 mph 52% 0 in 606 W/m2
16:14 75.9 °F 57.6 °F 30.2 in NNE 4.9 mph 5 mph 53% 0 in 601 W/m2
16:19 76.1 °F 57.2 °F 30.2 in SSE 2.9 mph 9 mph 52% 0 in 589 W/m2
16:24 76.3 °F 57.4 °F 30.2 in ENE 4 mph 9 mph 52% 0 in 580 W/m2
16:29 76.5 °F 57.6 °F 30.2 in ESE 2 mph 6 mph 52% 0 in 571 W/m2
16:34 76.6 °F 57.2 °F 30.2 in ENE 2 mph 4 mph 51% 0 in 559 W/m2
16:39 76.8 °F 56.8 °F 30.2 in East 2.9 mph 9 mph 50% 0 in 555 W/m2
16:44 76.6 °F 56.1 °F 30.2 in ENE 2.9 mph 8 mph 49% 0 in 538 W/m2
16:49 76.6 °F 56.1 °F 30.2 in NE 2.9 mph 8 mph 49% 0 in 529 W/m2
16:54 76.6 °F 56.1 °F 30.2 in Calm   6 mph 49% 0 in 517 W/m2
16:59 77.2 °F 57 °F 30.2 in ENE 2 mph 8 mph 50% 0 in 504 W/m2
17:04 76.8 °F 55.6 °F 30.2 in ENE 8.9 mph 9 mph 48% 0 in 489 W/m2
17:09 76.6 °F 56.1 °F 30.2 in SE 2.9 mph 10 mph 49% 0 in 480 W/m2
17:14 76.6 °F 55.4 °F 30.2 in East 2 mph 6 mph 48% 0 in 466 W/m2
17:19 76.8 °F 56.3 °F 30.2 in North 4 mph 8 mph 49% 0 in 452 W/m2
17:24 76.6 °F 55.4 °F 30.2 in NE 4 mph 6 mph 48% 0 in 446 W/m2
17:29 76.6 °F 55.4 °F 30.2 in ENE 0.9 mph 8 mph 48% 0 in 422 W/m2
17:34 76.8 °F 56.3 °F 30.2 in ESE 6 mph 7 mph 49% 0 in 408 W/m2
17:39 76.8 °F 55 °F 30.2 in SE 4 mph 7 mph 47% 0 in 401 W/m2
17:44 76.6 °F 56.7 °F 30.2 in ESE 6 mph 10 mph 50% 0 in 385 W/m2
17:49 76.6 °F 55.4 °F 30.2 in East 0.9 mph 10 mph 48% 0 in 371 W/m2
17:54 76.5 °F 55.4 °F 30.2 in ENE 6 mph 9 mph 48% 0 in 360 W/m2
17:59 76.5 °F 55.4 °F 30.2 in ENE 2 mph 10 mph 48% 0 in 343 W/m2
18:04 76.5 °F 55.4 °F 30.2 in East 2 mph 5 mph 48% 0 in 329 W/m2
18:09 76.3 °F 55.2 °F 30.2 in NE 2.9 mph 10 mph 48% 0 in 316 W/m2
18:14 75.9 °F 55.4 °F 30.2 in ESE 2 mph 7 mph 49% 0 in 299 W/m2
18:19 75.9 °F 55.9 °F 30.2 in ESE 2 mph 9 mph 50% 0 in 285 W/m2
18:24 75.9 °F 54.9 °F 30.1 in SSE 2 mph 9 mph 48% 0 in 271 W/m2
18:29 75.6 °F 55 °F 30.1 in East 6 mph 6 mph 49% 0 in 258 W/m2
18:34 75.4 °F 55.4 °F 30.1 in ESE 2 mph 4 mph 50% 0 in 241 W/m2
18:39 75.2 °F 55.2 °F 30.1 in East 2.9 mph 9 mph 50% 0 in 227 W/m2
18:44 75 °F 55 °F 30.1 in SE 2 mph 11 mph 50% 0 in 211 W/m2
18:49 74.8 °F 55.6 °F 30.1 in East 0.9 mph 5 mph 51% 0 in 197 W/m2
18:54 74.7 °F 55.9 °F 30.1 in ENE 4.9 mph 12 mph 52% 0 in 183 W/m2
18:59 74.5 °F 55.8 °F 30.1 in East 4 mph 5 mph 52% 0 in 169 W/m2
19:04 74.1 °F 55.4 °F 30.1 in East 0.9 mph 12 mph 52% 0 in 153 W/m2
19:09 74.1 °F 55.9 °F 30.1 in NE 2.9 mph 5 mph 53% 0 in 139 W/m2
19:14 73.9 °F 56.3 °F 30.1 in Calm   5 mph 54% 0 in 120 W/m2
19:19 73.8 °F 56.1 °F 30.1 in SE 2.9 mph 6 mph 54% 0 in 100 W/m2
19:24 73.6 °F 55.9 °F 30.1 in SE 4.9 mph 5 mph 54% 0 in 86 W/m2
19:29 73.2 °F 55.6 °F 30.1 in NE 2.9 mph 6 mph 54% 0 in 53 W/m2
19:34 72.9 °F 55.2 °F 30.1 in ENE 0.9 mph 9 mph 54% 0 in 26 W/m2
19:39 72.7 °F 55.6 °F 30.1 in East 4 mph 8 mph 55% 0 in 21 W/m2
19:44 72.1 °F 55 °F 30.1 in East 6 mph 11 mph 55% 0 in 19 W/m2
19:49 72 °F 55.9 °F 30.1 in ESE 4 mph 4 mph 57% 0 in 16 W/m2
19:54 71.4 °F 55.4 °F 30.1 in ESE 0.9 mph 11 mph 57% 0 in 14 W/m2
19:59 71.2 °F 56.1 °F 30.1 in ENE 0.9 mph 2 mph 59% 0 in 12 W/m2
20:04 70.5 °F 55.9 °F 30.1 in SSE 0.9 mph 3 mph 60% 0 in 11 W/m2
20:09 70 °F 55.4 °F 30.1 in Calm   3 mph 60% 0 in 7 W/m2
20:14 69.4 °F 55.9 °F 30.1 in East 0.9 mph 2 mph 62% 0 in 5 W/m2
20:19 68.9 °F 55.8 °F 30.1 in Calm   5 mph 63% 0 in 0 W/m2
20:24 68.4 °F 55.8 °F 30.1 in Calm   2 mph 64% 0 in 0 W/m2
20:29 67.8 °F 55.6 °F 30.1 in Calm   1 mph 65% 0 in 0 W/m2
20:34 67.5 °F 55.8 °F 30.1 in ENE 0.9 mph 1 mph 66% 0 in 0 W/m2
20:39 67.1 °F 55.8 °F 30.1 in Calm   1 mph 67% 0 in 0 W/m2
20:44 66.7 °F 55.8 °F 30.1 in Calm   1 mph 68% 0 in 0 W/m2
20:49 66.4 °F 55.9 °F 30.1 in Calm   1 mph 69% 0 in 0 W/m2
20:54 65.8 °F 55.4 °F 30.1 in Calm     69% 0 in 0 W/m2
20:59 65.5 °F 55.4 °F 30.1 in Calm   1 mph 70% 0 in 0 W/m2
21:04 65.1 °F 55.4 °F 30.1 in ESE 0.9 mph 1 mph 71% 0 in 0 W/m2
21:09 64.8 °F 55.6 °F 30.1 in Calm   2 mph 72% 0 in 0 W/m2
21:14 64.2 °F 55 °F 30.1 in Calm   1 mph 72% 0 in 0 W/m2
21:19 64 °F 55.2 °F 30.1 in Calm   2 mph 73% 0 in 0 W/m2
21:25 63.9 °F 55.4 °F 30.1 in Calm     74% 0 in 0 W/m2
21:30 63.5 °F 55.4 °F 30.1 in SE 0.9 mph 2 mph 75% 0 in 0 W/m2
21:35 63.3 °F 55.2 °F 30.1 in SE 0.9 mph 1 mph 75% 0 in 0 W/m2
21:40 63.3 °F 55.2 °F 30.1 in Calm   2 mph 75% 0 in 0 W/m2
21:45 63.1 °F 55.4 °F 30.1 in SE 0.9 mph 1 mph 76% 0 in 0 W/m2
21:50 63.1 °F 55.4 °F 30.1 in SE 0.9 mph 2 mph 76% 0 in 0 W/m2
21:55 63 °F 55.6 °F 30.1 in Calm   2 mph 77% 0 in 0 W/m2
22:00 63 °F 55.6 °F 30.1 in SE 0.9 mph 2 mph 77% 0 in 0 W/m2
22:05 63 °F 55.6 °F 30.1 in Calm   1 mph 77% 0 in 0 W/m2
22:10 63 °F 55.6 °F 30.1 in SSE 0.9 mph 2 mph 77% 0 in 0 W/m2
22:15 63.1 °F 55.8 °F 30.1 in SSE 0.9 mph 1 mph 77% 0 in 0 W/m2
22:20 63 °F 55.6 °F 30.1 in SSE 0.9 mph 2 mph 77% 0 in 0 W/m2
22:25 62.8 °F 55.8 °F 30.1 in Calm   2 mph 78% 0 in 0 W/m2
22:30 62.4 °F 55.4 °F 30.1 in SSE 0.9 mph 1 mph 78% 0 in 0 W/m2
22:35 62.1 °F 55.4 °F 30.1 in Calm   3 mph 79% 0 in 0 W/m2
22:40 61.9 °F 55.2 °F 30.1 in SSE 0.9 mph 1 mph 79% 0 in 0 W/m2
22:45 61.7 °F 55.4 °F 30.1 in SSE 2 mph 2 mph 80% 0 in 0 W/m2
22:50 61.3 °F 55 °F 30.1 in SSE 0.9 mph 1 mph 80% 0 in 0 W/m2
22:55 61.3 °F 55.4 °F 30.1 in SSE 0.9 mph 4 mph 81% 0 in 0 W/m2
23:00 61.3 °F 55.4 °F 30.1 in Calm   1 mph 81% 0 in 0 W/m2
23:05 61.2 °F 55.2 °F 30.1 in Calm   3 mph 81% 0 in 0 W/m2
23:10 61.2 °F 55.2 °F 30.1 in SSE 0.9 mph 1 mph 81% 0 in 0 W/m2
23:15 61 °F 55.4 °F 30.1 in SSE 0.9 mph 2 mph 82% 0 in 0 W/m2
23:20 60.8 °F 55.2 °F 30.1 in Calm   1 mph 82% 0 in 0 W/m2
23:25 60.6 °F 55 °F 30.1 in SSE 0.9 mph 2 mph 82% 0 in 0 W/m2
23:30 60.6 °F 55 °F 30.1 in Calm   1 mph 82% 0 in 0 W/m2
23:35 60.6 °F 55 °F 30.1 in Calm     82% 0 in 0 W/m2
23:40 60.6 °F 55 °F 30.1 in SSE 0.9 mph 2 mph 82% 0 in 0 W/m2
23:45 60.6 °F 55 °F 30.1 in Calm   1 mph 82% 0 in 0 W/m2
23:50 60.6 °F 55 °F 30.1 in Calm   1 mph 82% 0 in 0 W/m2
23:55 60.4 °F 54.9 °F 30.1 in SSE 0.9 mph 1 mph 82% 0 in 0 W/m2
Juneau County Weather
Compliments of Weather Underground - 4 mb